Time;durP1;ratioP1;P1;durP2;ratioP2;P2;SDS_P1;SDS_P2;PMS_P1;PMS_P2;Temp;Humidity;BMP_temperature;BMP_pressure;BME280_temperature;BME280_humidity;BME280_pressure;Samples;Min_cycle;Max_cycle;Signal;HPM_P1;HPM_P2
2023/08/03 06:15:29;;;;;;;8.00;3.10;;;;;;;20.60;68.95;96123.05;104796;1273;95974;-84
2023/08/03 06:18:03;;;;;;;3.30;2.40;;;;;;;20.63;69.37;96126.30;106875;1252;100187;-81
2023/08/03 06:20:29;;;;;;;3.10;2.70;;;;;;;20.66;69.33;96122.55;106855;1251;95867;-83
2023/08/03 06:22:56;;;;;;;4.70;2.50;;;;;;;20.71;69.12;96118.92;106890;1261;96514;-84
2023/08/03 06:25:22;;;;;;;3.30;2.60;;;;;;;20.76;68.40;96119.63;107918;1249;95921;-83
2023/08/03 06:27:50;;;;;;;4.10;3.00;;;;;;;20.81;67.61;96117.45;108080;1242;95933;-83
2023/08/03 06:30:18;;;;;;;3.40;2.80;;;;;;;20.82;67.26;96120.44;107481;1241;95951;-83
2023/08/03 06:32:44;;;;;;;5.70;2.90;;;;;;;20.84;67.34;96119.63;107939;1237;96422;-85
2023/08/03 06:35:26;;;;;;;3.80;2.70;;;;;;;20.88;67.86;96115.71;107961;1248;96407;-83
2023/08/03 06:37:54;;;;;;;4.60;2.80;;;;;;;20.93;68.33;96117.95;107651;1242;102300;-83
2023/08/03 06:40:20;;;;;;;4.10;2.80;;;;;;;20.99;68.93;96117.32;107959;1240;108707;-83
2023/08/03 06:42:46;;;;;;;3.70;3.10;;;;;;;21.05;68.96;96114.10;107915;1235;95841;-82
2023/08/03 06:45:13;;;;;;;5.40;3.30;;;;;;;21.11;68.45;96109.30;108041;1249;95860;-83
2023/08/03 06:47:40;;;;;;;4.10;3.50;;;;;;;21.17;68.66;96114.21;108048;1238;95832;-82
2023/08/03 06:50:08;;;;;;;7.20;3.50;;;;;;;21.22;68.89;96118.33;108095;1247;95817;-83
2023/08/03 06:52:35;;;;;;;3.40;2.80;;;;;;;21.29;69.06;96121.54;108038;1249;95918;-83
2023/08/03 06:55:01;;;;;;;4.70;3.20;;;;;;;21.41;69.21;96123.34;108076;1236;95837;-83
2023/08/03 06:57:28;;;;;;;3.10;2.80;;;;;;;21.54;68.86;96123.30;108049;1247;96279;-87
2023/08/03 06:59:55;;;;;;;3.10;2.80;;;;;;;21.67;68.10;96116.84;108054;1240;97515;-82
2023/08/03 07:02:22;;;;;;;6.30;2.90;;;;;;;21.83;67.54;96116.42;107959;1237;95851;-85
2023/08/03 07:04:48;;;;;;;4.80;2.80;;;;;;;22.02;66.80;96109.02;107748;1241;95938;-83
2023/08/03 07:07:15;;;;;;;4.20;2.60;;;;;;;22.19;66.46;96109.89;108030;1238;95943;-84
2023/08/03 07:09:41;;;;;;;2.80;2.60;;;;;;;22.31;66.50;96112.55;108033;1247;96939;-83
2023/08/03 07:12:10;;;;;;;5.20;2.90;;;;;;;22.41;66.35;96108.94;108080;1237;95901;-83
2023/08/03 07:14:36;;;;;;;4.70;3.20;;;;;;;22.48;66.15;96109.77;107950;1245;96747;-82
2023/08/03 07:17:03;;;;;;;5.80;3.10;;;;;;;22.54;65.69;96105.04;107980;1246;95815;-83
2023/08/03 07:19:29;;;;;;;4.90;2.70;;;;;;;22.61;65.34;96103.08;108035;1241;95895;-83
2023/08/03 07:21:55;;;;;;;3.90;3.10;;;;;;;22.69;65.10;96104.17;108005;1247;95818;-83
2023/08/03 07:24:21;;;;;;;3.80;2.90;;;;;;;22.80;65.01;96107.77;108072;1237;95828;-83
2023/08/03 07:26:48;;;;;;;3.30;2.80;;;;;;;22.89;64.54;96103.98;107953;1235;96077;-83
2023/08/03 07:29:14;;;;;;;3.50;2.80;;;;;;;22.98;64.29;96103.64;107567;1242;96324;-83
2023/08/03 07:31:41;;;;;;;3.80;2.80;;;;;;;23.16;64.54;96111.79;108076;1240;95816;-84
2023/08/03 07:34:07;;;;;;;5.70;2.80;;;;;;;23.34;64.21;96114.25;108029;1239;95850;-85
2023/08/03 07:36:33;;;;;;;4.90;3.30;;;;;;;23.44;63.99;96116.52;108074;1245;96772;-83
2023/08/03 07:39:00;;;;;;;6.00;3.70;;;;;;;23.47;63.59;96121.44;107976;1237;96091;-85
2023/08/03 07:41:27;;;;;;;4.30;3.50;;;;;;;23.43;63.16;96123.38;108019;1238;95810;-83
2023/08/03 07:43:53;;;;;;;6.70;3.20;;;;;;;23.37;63.29;96125.49;108027;1235;96995;-83
2023/08/03 08:14:30;;;;;;;3.80;3.40;;;;;;;23.21;64.27;96164.41;105547;1268;95792;-85
2023/08/03 08:16:56;;;;;;;4.30;3.20;;;;;;;23.14;64.86;96172.53;107010;1249;100348;-81
2023/08/03 08:19:22;;;;;;;4.60;3.10;;;;;;;23.00;65.74;96173.86;106957;1249;95832;-81
2023/08/03 08:21:49;;;;;;;5.20;3.10;;;;;;;22.87;66.01;96177.13;107426;1239;95868;-83
2023/08/03 08:24:15;;;;;;;9.60;3.80;;;;;;;22.80;66.26;96184.05;107561;1251;96011;-83
2023/08/03 08:26:42;;;;;;;4.70;3.50;;;;;;;22.73;65.99;96189.86;107547;1239;108863;-84
2023/08/03 08:29:08;;;;;;;4.20;3.40;;;;;;;22.64;65.61;96201.95;107514;1242;95848;-83
2023/08/03 08:31:34;;;;;;;6.50;3.80;;;;;;;22.48;65.47;96212.91;107538;1242;96485;-83
2023/08/03 08:34:00;;;;;;;5.50;3.70;;;;;;;22.31;65.34;96230.60;107602;1242;95952;-82
2023/08/03 08:36:27;;;;;;;3.70;3.10;;;;;;;22.11;65.64;96250.90;107539;1242;98980;-83
2023/08/03 08:38:53;;;;;;;4.90;2.70;;;;;;;21.83;65.91;96260.62;107507;1242;95789;-82
2023/08/03 08:41:19;;;;;;;4.40;2.60;;;;;;;21.39;66.20;96275.30;107521;1238;95912;-83
2023/08/03 08:43:46;;;;;;;8.50;2.40;;;;;;;20.93;66.66;96289.99;107596;1244;97265;-83
2023/08/03 08:46:12;;;;;;;2.50;2.10;;;;;;;20.46;67.31;96299.36;107481;1238;97602;-83
2023/08/03 08:48:38;;;;;;;2.00;1.80;;;;;;;20.10;67.96;96305.86;107514;1242;96277;-83
2023/08/03 08:51:05;;;;;;;2.80;1.50;;;;;;;19.77;68.59;96315.02;107496;1238;95988;-81
2023/08/03 08:53:31;;;;;;;2.70;1.90;;;;;;;19.58;69.12;96325.73;107585;1242;96040;-82
2023/08/03 08:55:58;;;;;;;3.90;1.90;;;;;;;19.37;69.43;96330.92;107744;1242;100655;-82
2023/08/03 08:58:25;;;;;;;3.30;1.90;;;;;;;19.08;69.59;96332.97;107966;1241;96072;-81
2023/08/03 09:00:51;;;;;;;2.40;1.60;;;;;;;18.79;69.95;96331.32;107905;1239;96803;-81
2023/08/03 09:03:17;;;;;;;3.80;1.80;;;;;;;18.54;70.60;96336.85;108014;1251;95828;-81
2023/08/03 09:05:43;;;;;;;3.90;1.70;;;;;;;18.37;71.35;96336.93;107952;1237;100527;-81
2023/08/03 09:08:12;;;;;;;3.80;1.70;;;;;;;18.27;71.67;96338.16;107920;1237;95857;-81
2023/08/03 09:10:53;;;;;;;2.80;1.90;;;;;;;18.20;71.88;96341.63;107948;1239;96743;-81
2023/08/03 09:13:27;;;;;;;3.90;1.50;;;;;;;18.17;71.83;96342.24;107973;1250;101385;-81
2023/08/03 09:15:53;;;;;;;1.80;1.60;;;;;;;18.06;71.69;96340.79;108015;1239;100936;-82
2023/08/03 09:18:26;;;;;;;3.50;1.80;;;;;;;17.93;71.92;96347.05;107945;1239;95805;-79
2023/08/03 09:21:11;;;;;;;2.30;1.40;;;;;;;17.86;72.23;96355.69;107411;1236;95903;-82
2023/08/03 09:23:38;;;;;;;3.70;1.40;;;;;;;17.80;72.03;96363.91;107784;1239;95838;-82
2023/08/03 09:26:06;;;;;;;2.20;1.60;;;;;;;17.68;72.27;96372.60;107466;1236;95851;-81
2023/08/03 09:28:39;;;;;;;2.00;1.50;;;;;;;17.65;72.75;96383.24;107451;1250;97078;-81
2023/08/03 09:31:07;;;;;;;2.10;1.50;;;;;;;17.64;73.18;96395.96;107944;1239;100525;-81
2023/08/03 09:33:34;;;;;;;3.50;3.10;;;;;;;17.66;73.80;96412.02;108017;1239;96744;-81
2023/08/03 09:36:07;;;;;;;4.70;2.60;;;;;;;17.71;73.93;96419.09;107407;1236;95990;-81
2023/08/03 09:38:35;;;;;;;2.50;2.20;;;;;;;17.74;74.38;96421.75;107794;1249;101496;-81
2023/08/03 09:41:01;;;;;;;2.10;1.90;;;;;;;17.78;74.72;96414.62;107914;1244;95844;-81
2023/08/03 09:43:28;;;;;;;5.10;1.90;;;;;;;17.84;75.02;96414.73;107906;1239;96788;-80
2023/08/03 09:45:56;;;;;;;3.00;2.10;;;;;;;17.90;75.14;96415.38;107995;1235;96305;-81
2023/08/03 09:48:23;;;;;;;3.40;1.80;;;;;;;17.91;75.14;96422.91;107910;1240;96648;-80
2023/08/03 09:50:59;;;;;;;1.90;1.70;;;;;;;17.89;75.28;96431.43;107986;1236;95867;-81
2023/08/03 09:53:36;;;;;;;2.60;2.20;;;;;;;17.87;75.54;96431.66;107960;1242;102177;-81
2023/08/03 09:56:05;;;;;;;3.20;2.10;;;;;;;17.89;75.59;96428.27;107438;1250;100609;-80
2023/08/03 09:58:53;;;;;;;3.90;2.00;;;;;;;17.91;76.10;96432.57;107806;1241;95903;-80
2023/08/03 10:01:24;;;;;;;3.50;2.10;;;;;;;17.92;76.00;96436.23;107803;1239;95736;-80
2023/08/03 10:04:03;;;;;;;2.50;1.80;;;;;;;17.86;75.99;96438.02;107325;1244;101530;-80
2023/08/03 10:06:43;;;;;;;3.00;2.10;;;;;;;17.78;76.24;96434.94;107944;1248;109747;-80
2023/08/03 10:09:13;;;;;;;4.40;2.60;;;;;;;17.71;76.48;96429.25;107779;1248;100582;-80
2023/08/03 10:11:46;;;;;;;4.00;2.30;;;;;;;17.71;76.91;96419.31;107761;1249;96177;-80
2023/08/03 10:14:16;;;;;;;2.90;2.00;;;;;;;17.77;77.25;96404.48;107322;1247;95858;-80
2023/08/03 10:16:44;;;;;;;3.40;2.30;;;;;;;17.83;77.46;96392.34;107583;1244;101787;-81
2023/08/03 10:19:11;;;;;;;2.70;1.60;;;;;;;17.88;77.44;96371.40;107990;1241;110094;-81
2023/08/03 10:21:38;;;;;;;3.40;1.80;;;;;;;17.93;77.47;96360.44;107956;1240;95842;-80
2023/08/03 10:24:17;;;;;;;3.90;1.80;;;;;;;17.98;77.53;96363.02;107867;1247;96092;-81
2023/08/03 10:27:09;;;;;;;2.50;1.60;;;;;;;18.02;77.26;96358.79;107985;1240;96004;-81
2023/08/03 10:29:52;;;;;;;2.70;1.80;;;;;;;18.05;77.64;96346.70;107954;1236;101310;-81
2023/08/03 10:32:21;;;;;;;3.30;1.80;;;;;;;18.10;77.94;96357.05;107843;1239;101927;-81
2023/08/03 10:34:50;;;;;;;2.60;1.80;;;;;;;18.18;77.65;96355.62;107923;1239;108673;-80
2023/08/03 10:37:17;;;;;;;1.70;1.30;;;;;;;18.26;77.70;96350.58;107441;1245;95964;-82
2023/08/03 10:39:50;;;;;;;2.80;1.90;;;;;;;18.34;77.93;96343.89;107894;1247;96216;-82
2023/08/03 10:42:29;;;;;;;2.50;1.90;;;;;;;18.43;78.11;96333.78;107755;1240;99707;-81
2023/08/03 10:45:21;;;;;;;3.70;2.10;;;;;;;18.53;78.13;96332.05;107750;1240;102173;-81
2023/08/03 10:47:48;;;;;;;3.30;1.80;;;;;;;18.58;77.76;96333.61;107920;1239;100667;-82
2023/08/03 10:50:15;;;;;;;2.70;2.00;;;;;;;18.66;77.96;96334.84;107960;1249;95888;-82
2023/08/03 10:52:41;;;;;;;3.70;2.10;;;;;;;18.71;77.80;96336.52;107987;1236;96785;-82
2023/08/03 10:55:24;;;;;;;2.80;1.90;;;;;;;18.77;77.86;96335.55;107980;1239;96330;-83
2023/08/03 10:57:50;;;;;;;3.40;1.90;;;;;;;18.84;77.84;96338.37;107873;1250;102392;-83
2023/08/03 11:00:17;;;;;;;2.70;2.20;;;;;;;18.88;77.63;96339.10;107866;1239;95755;-82
2023/08/03 11:02:44;;;;;;;3.50;2.00;;;;;;;18.88;77.44;96329.69;108000;1236;96330;-83
2023/08/03 11:05:11;;;;;;;2.20;2.00;;;;;;;18.89;77.20;96332.30;107987;1239;96429;-83
2023/08/03 11:07:43;;;;;;;3.40;2.20;;;;;;;18.88;77.16;96332.15;107762;1247;102010;-82
2023/08/03 11:10:12;;;;;;;3.30;2.20;;;;;;;18.91;77.31;96326.27;107432;1245;100596;-83
2023/08/03 11:12:40;;;;;;;2.10;1.80;;;;;;;18.95;77.50;96326.77;107930;1239;95730;-84
2023/08/03 11:15:07;;;;;;;2.10;1.90;;;;;;;19.00;77.53;96331.90;107907;1237;95812;-84
2023/08/03 11:17:35;;;;;;;3.10;2.20;;;;;;;19.05;77.28;96335.96;108058;1250;95844;-83
2023/08/03 11:20:07;;;;;;;3.10;2.00;;;;;;;19.06;77.18;96332.89;107556;1245;102093;-84
2023/08/03 11:22:34;;;;;;;2.60;2.00;;;;;;;19.08;77.11;96328.77;107944;1239;98597;-83
2023/08/03 11:25:05;;;;;;;3.40;2.20;;;;;;;19.13;77.31;96332.30;107897;1248;96296;-84
2023/08/03 11:27:32;;;;;;;3.20;2.50;;;;;;;19.18;77.56;96339.08;107108;1254;96108;-84
2023/08/03 11:30:02;;;;;;;2.50;2.30;;;;;;;19.24;78.01;96340.05;107433;1246;95996;-83
2023/08/03 11:32:31;;;;;;;2.30;1.90;;;;;;;19.27;77.72;96343.47;107537;1244;102214;-83
2023/08/03 11:35:09;;;;;;;3.10;1.70;;;;;;;19.21;76.90;96350.27;107500;1240;98682;-83
2023/08/03 11:37:37;;;;;;;2.10;1.60;;;;;;;19.08;76.36;96347.23;107421;1248;96038;-84
2023/08/03 11:40:05;;;;;;;2.10;1.70;;;;;;;19.08;76.91;96354.02;107296;1244;96110;-83
2023/08/03 11:42:34;;;;;;;2.60;2.10;;;;;;;19.08;77.27;96350.36;107588;1244;101427;-81
2023/08/03 11:45:00;;;;;;;2.90;2.40;;;;;;;18.98;77.23;96341.77;107421;1254;103371;-83
2023/08/03 11:47:41;;;;;;;3.60;2.10;;;;;;;18.94;77.50;96347.73;107404;1239;96191;-83
2023/08/03 11:50:08;;;;;;;2.30;2.10;;;;;;;18.96;77.64;96348.18;107510;1245;96997;-83
2023/08/03 11:52:34;;;;;;;2.50;1.90;;;;;;;18.99;77.92;96348.48;107308;1251;96044;-83
2023/08/03 11:55:00;;;;;;;3.70;2.10;;;;;;;19.02;78.14;96350.10;107611;1244;95906;-83
2023/08/03 12:00:14;;;;;;;2.30;1.90;;;;;;;19.03;78.77;96356.48;107609;1244;95887;-83
2023/08/03 12:02:43;;;;;;;5.50;2.20;;;;;;;18.99;78.58;96360.35;107819;1239;96018;-83
2023/08/03 12:05:15;;;;;;;5.30;2.50;;;;;;;18.99;78.66;96364.45;107542;1245;109413;-83
2023/08/03 12:07:41;;;;;;;3.70;2.10;;;;;;;19.01;78.81;96368.88;107803;1240;102529;-82
2023/08/03 12:10:13;;;;;;;4.40;2.10;;;;;;;18.99;78.63;96363.04;107951;1238;97059;-83
2023/08/03 12:12:42;;;;;;;4.20;2.30;;;;;;;18.91;78.73;96363.79;107464;1250;96078;-84
2023/08/03 12:15:10;;;;;;;3.40;2.50;;;;;;;18.91;78.95;96353.13;107602;1245;97079;-82
2023/08/03 12:17:37;;;;;;;2.90;2.30;;;;;;;18.89;78.54;96338.59;107590;1240;103113;-82
2023/08/03 12:20:05;;;;;;;2.80;2.20;;;;;;;18.88;78.50;96343.31;107958;1247;97450;-83
2023/08/03 12:22:33;;;;;;;2.40;1.90;;;;;;;18.86;78.47;96347.59;107842;1236;97779;-83
2023/08/03 12:24:59;;;;;;;2.40;2.10;;;;;;;18.86;78.69;96343.05;107331;1244;97698;-84
2023/08/03 12:27:25;;;;;;;5.30;3.20;;;;;;;18.82;78.76;96356.77;107975;1238;96543;-83
2023/08/03 12:29:52;;;;;;;4.30;2.90;;;;;;;18.82;78.88;96361.59;107978;1250;96729;-83
2023/08/03 12:32:18;;;;;;;3.80;2.60;;;;;;;18.82;78.88;96362.41;108032;1240;96558;-82
2023/08/03 12:34:44;;;;;;;4.10;2.30;;;;;;;18.76;78.83;96362.35;107936;1235;96564;-83
2023/08/03 12:37:11;;;;;;;2.80;2.60;;;;;;;18.76;79.43;96361.58;107778;1239;97838;-83
2023/08/03 12:39:37;;;;;;;4.40;2.70;;;;;;;18.78;79.44;96355.98;107830;1250;96567;-84
2023/08/03 12:42:03;;;;;;;3.70;2.70;;;;;;;18.83;79.76;96357.45;107828;1239;96556;-83
2023/08/03 12:44:30;;;;;;;3.90;3.10;;;;;;;18.84;79.81;96352.86;107678;1241;97062;-84
2023/08/03 12:46:56;;;;;;;6.00;3.10;;;;;;;18.83;79.82;96347.53;107743;1235;97442;-82
2023/08/03 12:49:23;;;;;;;4.50;2.70;;;;;;;18.77;79.46;96333.74;107781;1238;96535;-84
2023/08/03 12:51:49;;;;;;;4.80;3.10;;;;;;;18.78;79.80;96338.93;107648;1242;96761;-83
2023/08/03 12:54:16;;;;;;;3.00;2.40;;;;;;;18.84;80.24;96348.21;107755;1250;96548;-84
2023/08/03 12:56:42;;;;;;;7.80;4.60;;;;;;;18.85;79.81;96351.15;107862;1248;96541;-84
2023/08/03 12:59:08;;;;;;;7.40;5.20;;;;;;;18.79;79.70;96354.61;107872;1240;97521;-83
2023/08/03 13:01:34;;;;;;;4.70;4.00;;;;;;;18.81;79.89;96369.75;108054;1240;97724;-83
2023/08/03 13:04:01;;;;;;;5.60;3.80;;;;;;;18.82;79.74;96378.16;107810;1240;96921;-83
2023/08/03 13:06:27;;;;;;;6.90;3.30;;;;;;;18.81;79.96;96387.84;107875;1239;97326;-83
2023/08/03 13:08:54;;;;;;;3.70;2.70;;;;;;;18.79;79.64;96383.27;107875;1237;96464;-83
2023/08/03 13:11:20;;;;;;;3.50;3.10;;;;;;;18.71;79.88;96383.01;107862;1241;96620;-83
2023/08/03 13:24:29;;;;;;;4.20;3.80;;;;;;;19.01;79.76;96388.79;102727;1288;640079;-84
2023/08/03 13:27:18;;;;;;;8.00;3.60;;;;;;;19.12;79.73;96408.09;104668;1267;100114;-84
2023/08/03 13:29:49;;;;;;;4.50;2.80;;;;;;;19.07;79.97;96415.38;104508;1267;96930;-84
2023/08/03 13:32:17;;;;;;;4.80;3.80;;;;;;;19.05;80.13;96430.70;104623;1267;100110;-84
2023/08/03 13:34:45;;;;;;;4.60;3.50;;;;;;;19.05;80.10;96430.59;104574;1265;102594;-83
2023/08/03 13:37:12;;;;;;;5.80;4.40;;;;;;;19.04;80.25;96427.10;104529;1268;100546;-84
2023/08/03 13:39:40;;;;;;;7.60;4.60;;;;;;;19.03;80.28;96422.08;104628;1274;95918;-84
2023/08/03 13:42:08;;;;;;;7.90;5.00;;;;;;;18.97;80.08;96426.00;104622;1274;95864;-84
2023/08/03 13:44:35;;;;;;;5.90;4.20;;;;;;;18.94;80.24;96423.09;104678;1265;100154;-84
2023/08/03 13:47:03;;;;;;;5.40;3.60;;;;;;;18.92;80.32;96421.96;104635;1267;100381;-84
2023/08/03 13:49:32;;;;;;;5.40;3.20;;;;;;;18.92;80.27;96424.54;104619;1268;100639;-84
2023/08/03 13:52:00;;;;;;;5.90;3.30;;;;;;;18.92;80.44;96422.08;104408;1268;96018;-84
2023/08/03 13:54:27;;;;;;;4.20;2.90;;;;;;;18.87;80.36;96423.11;104618;1273;95798;-84
2023/08/03 13:56:55;;;;;;;6.40;3.30;;;;;;;18.78;80.36;96426.85;104715;1266;101693;-84
2023/08/03 13:59:23;;;;;;;5.40;3.10;;;;;;;18.71;80.37;96423.91;104622;1267;100335;-84
2023/08/03 14:01:50;;;;;;;4.60;2.70;;;;;;;18.65;80.25;96423.58;104642;1277;98983;-84
2023/08/03 14:04:19;;;;;;;4.90;2.30;;;;;;;18.65;80.28;96421.88;104637;1261;95894;-84
2023/08/03 14:06:46;;;;;;;4.00;2.40;;;;;;;18.67;80.36;96429.90;104641;1266;96159;-84
2023/08/03 14:09:14;;;;;;;4.20;2.70;;;;;;;18.71;80.22;96432.16;104601;1266;101656;-84
2023/08/03 14:11:42;;;;;;;6.40;3.00;;;;;;;18.74;80.35;96436.02;104614;1265;102128;-84
2023/08/03 14:14:10;;;;;;;5.10;3.20;;;;;;;18.74;80.51;96435.30;104623;1273;100744;-84
2023/08/03 14:16:38;;;;;;;5.30;3.10;;;;;;;18.77;80.44;96433.52;104596;1260;97221;-84
2023/08/03 14:19:06;;;;;;;5.00;3.70;;;;;;;18.79;80.42;96436.52;104630;1265;96805;-84
2023/08/03 14:21:34;;;;;;;3.90;3.00;;;;;;;18.78;80.43;96437.18;104680;1261;101671;-84
2023/08/03 14:24:01;;;;;;;7.80;2.90;;;;;;;18.78;80.52;96440.41;104606;1274;102299;-84
2023/08/03 14:26:29;;;;;;;8.10;4.30;;;;;;;18.72;80.22;96448.01;104613;1274;99297;-84
2023/08/03 14:28:57;;;;;;;6.40;3.10;;;;;;;18.63;80.23;96453.20;104620;1284;95834;-84
2023/08/03 14:31:25;;;;;;;5.20;3.20;;;;;;;18.64;80.44;96450.58;104643;1277;95922;-84
2023/08/03 14:33:52;;;;;;;3.80;3.00;;;;;;;18.63;80.64;96456.55;104627;1267;101844;-83
2023/08/03 14:36:20;;;;;;;7.60;2.90;;;;;;;18.61;80.45;96470.77;104647;1261;102097;-83
2023/08/03 14:38:48;;;;;;;4.70;3.10;;;;;;;18.62;80.61;96472.23;104551;1266;100782;-83
2023/08/03 14:41:17;;;;;;;5.90;3.80;;;;;;;18.65;80.84;96468.89;104635;1283;95822;-82
2023/08/03 14:43:48;;;;;;;3.80;3.20;;;;;;;18.67;80.76;96467.95;104772;1276;96867;-84
2023/08/03 14:46:15;;;;;;;6.20;3.60;;;;;;;18.65;80.84;96474.20;104694;1264;101745;-84
2023/08/03 14:48:44;;;;;;;7.00;3.40;;;;;;;18.65;81.10;96478.63;104898;1270;102167;-84
2023/08/03 14:51:13;;;;;;;7.90;4.10;;;;;;;18.65;81.24;96482.67;104859;1270;100773;-83
2023/08/03 14:53:41;;;;;;;7.70;4.20;;;;;;;18.66;81.45;96482.60;104730;1261;97019;-82
2023/08/03 14:56:09;;;;;;;9.10;5.30;;;;;;;18.62;81.65;96481.64;104945;1257;96357;-84
2023/08/03 14:58:38;;;;;;;14.10;6.10;;;;;;;18.59;81.70;96475.42;104845;1260;101599;-83
2023/08/03 15:01:09;;;;;;;9.30;6.20;;;;;;;18.55;81.87;96474.95;104919;1260;101642;-81
2023/08/03 15:03:38;;;;;;;9.80;4.60;;;;;;;18.53;81.33;96480.80;105181;1259;100750;-85
2023/08/03 15:06:17;;;;;;;5.10;3.70;;;;;;;18.50;81.36;96480.05;105109;1270;95819;-82
2023/08/03 15:08:45;;;;;;;3.70;3.00;;;;;;;18.48;81.34;96470.95;105228;1260;97152;-82
2023/08/03 15:11:13;;;;;;;6.40;3.30;;;;;;;18.47;81.36;96471.02;105136;1267;101644;-83
2023/08/03 15:13:41;;;;;;;6.30;3.10;;;;;;;18.49;81.58;96479.58;105163;1261;102124;-84
2023/08/03 15:16:20;;;;;;;5.00;3.40;;;;;;;18.53;81.75;96473.15;104788;1265;100624;-84
2023/08/03 15:18:54;;;;;;;7.90;3.80;;;;;;;18.56;81.93;96468.72;105138;1260;96137;-84
2023/08/03 15:21:30;;;;;;;6.00;3.10;;;;;;;18.58;82.15;96472.89;104764;1263;96195;-84
2023/08/03 15:23:59;;;;;;;7.80;3.60;;;;;;;18.58;82.34;96476.06;104869;1259;101637;-83
2023/08/03 15:26:28;;;;;;;6.50;3.70;;;;;;;18.59;82.34;96480.38;104971;1261;102164;-84
2023/08/03 15:28:56;;;;;;;7.50;3.40;;;;;;;18.57;82.36;96482.05;104909;1279;98277;-84
2023/08/03 15:31:24;;;;;;;9.00;3.50;;;;;;;18.58;82.40;96488.52;105141;1270;96037;-85
2023/08/03 15:33:52;;;;;;;8.50;3.10;;;;;;;18.55;82.27;96488.84;104779;1262;96006;-84
2023/08/03 15:36:35;;;;;;;5.30;2.50;;;;;;;18.52;82.27;96476.17;105075;1259;101716;-84
2023/08/03 15:39:03;;;;;;;4.90;2.70;;;;;;;18.50;82.06;96467.98;104881;1257;102148;-84
2023/08/03 15:41:32;;;;;;;7.20;3.80;;;;;;;18.45;81.66;96467.15;104981;1257;107100;-83
2023/08/03 15:44:00;;;;;;;8.60;4.60;;;;;;;18.41;81.28;96478.27;104766;1264;96719;-84
2023/08/03 15:46:28;;;;;;;8.00;5.10;;;;;;;18.41;81.37;96487.56;104782;1261;96013;-84
2023/08/03 15:48:56;;;;;;;7.80;3.80;;;;;;;18.43;81.58;96488.87;104953;1269;101788;-84
2023/08/03 15:51:24;;;;;;;5.70;3.30;;;;;;;18.48;81.54;96497.67;104871;1260;102242;-84
2023/08/03 15:53:52;;;;;;;6.30;4.00;;;;;;;18.51;81.25;96489.02;104848;1269;101056;-85
2023/08/03 15:56:20;;;;;;;7.20;5.10;;;;;;;18.48;81.05;96485.83;104811;1266;96023;-83
2023/08/03 15:58:48;;;;;;;7.30;4.50;;;;;;;18.46;81.31;96482.52;104991;1259;96159;-83
2023/08/03 16:01:15;;;;;;;10.20;5.30;;;;;;;18.49;81.33;96508.87;104948;1261;101669;-83
2023/08/03 16:03:43;;;;;;;7.20;5.00;;;;;;;18.53;81.38;96514.26;104978;1260;102281;-84
2023/08/03 16:06:14;;;;;;;6.00;4.70;;;;;;;18.51;81.34;96514.92;105279;1259;100875;-82
2023/08/03 16:08:45;;;;;;;6.40;4.40;;;;;;;18.50;81.10;96521.27;105251;1257;97060;-82
2023/08/03 16:11:13;;;;;;;7.00;4.10;;;;;;;18.52;80.93;96527.39;104966;1256;96120;-82
2023/08/03 16:13:41;;;;;;;6.40;3.40;;;;;;;18.52;80.50;96511.37;104936;1260;101467;-81
2023/08/03 16:16:09;;;;;;;5.80;3.30;;;;;;;18.49;79.80;96502.85;104933;1256;102249;-82
2023/08/03 16:18:37;;;;;;;5.50;3.30;;;;;;;18.50;79.31;96509.08;104919;1270;99893;-84
2023/08/03 16:21:07;;;;;;;6.60;3.70;;;;;;;18.52;79.39;96502.56;104871;1260;96515;-83
2023/08/03 16:23:38;;;;;;;5.10;3.60;;;;;;;18.50;79.67;96514.05;104991;1257;96108;-83
2023/08/03 16:26:07;;;;;;;4.80;3.30;;;;;;;18.47;79.98;96509.83;104914;1256;101550;-83
2023/08/03 16:28:35;;;;;;;6.30;2.70;;;;;;;18.36;79.77;96500.70;104679;1262;102184;-82
2023/08/03 16:31:14;;;;;;;8.40;3.80;;;;;;;18.30;79.90;96502.33;104834;1268;107885;-82
2023/08/03 16:33:43;;;;;;;10.00;4.20;;;;;;;18.30;80.23;96502.21;104841;1260;96667;-82
2023/08/03 16:36:19;;;;;;;6.90;4.40;;;;;;;18.28;80.06;96506.43;104879;1260;96781;-83
2023/08/03 16:38:48;;;;;;;5.90;3.70;;;;;;;18.23;80.19;96502.69;104924;1260;101808;-82
2023/08/03 16:41:16;;;;;;;6.40;3.10;;;;;;;18.19;79.99;96504.31;104797;1259;110037;-83
2023/08/03 16:43:44;;;;;;;5.70;3.10;;;;;;;18.15;80.01;96507.26;104795;1263;106752;-83
2023/08/03 16:46:11;;;;;;;5.20;3.00;;;;;;;18.13;79.98;96505.30;104872;1267;97167;-83
2023/08/03 16:48:39;;;;;;;6.70;3.10;;;;;;;18.07;79.72;96497.75;104881;1256;95829;-83
2023/08/03 16:51:07;;;;;;;4.20;3.00;;;;;;;17.99;79.76;96495.72;104898;1257;101673;-82
2023/08/03 16:53:34;;;;;;;9.20;3.90;;;;;;;17.96;80.14;96497.92;104821;1270;100123;-82
2023/08/03 16:56:02;;;;;;;9.50;4.40;;;;;;;17.97;80.43;96496.73;104867;1270;100695;-83
2023/08/03 16:58:30;;;;;;;8.60;4.70;;;;;;;17.99;80.44;96500.91;104966;1270;95841;-82
2023/08/03 17:00:58;;;;;;;5.40;2.90;;;;;;;17.98;80.38;96509.98;104966;1260;95841;-83
2023/08/03 17:03:25;;;;;;;4.90;2.80;;;;;;;17.91;80.17;96515.84;104915;1259;101343;-82
2023/08/03 17:05:54;;;;;;;3.80;2.50;;;;;;;17.86;80.11;96512.81;104988;1257;102223;-82
2023/08/03 17:08:23;;;;;;;4.50;2.70;;;;;;;17.86;80.09;96516.15;104910;1263;109799;-82
2023/08/03 17:10:51;;;;;;;3.90;2.90;;;;;;;17.86;79.55;96524.83;104899;1260;96116;-82
2023/08/03 17:13:19;;;;;;;5.80;3.00;;;;;;;17.85;79.52;96518.23;105056;1259;96646;-82
2023/08/03 17:15:46;;;;;;;4.60;2.60;;;;;;;17.86;79.21;96519.36;104890;1260;99420;-83
2023/08/03 17:18:14;;;;;;;4.40;2.60;;;;;;;17.86;79.01;96520.02;104931;1260;102112;-82
2023/08/03 17:20:42;;;;;;;5.90;2.40;;;;;;;17.88;79.43;96522.84;104852;1273;100454;-83
2023/08/03 17:23:09;;;;;;;8.40;3.20;;;;;;;17.86;79.04;96519.42;104923;1269;95879;-82
2023/08/03 17:25:37;;;;;;;9.20;3.20;;;;;;;17.86;79.17;96515.10;104909;1260;96891;-83
2023/08/03 17:28:05;;;;;;;5.90;3.10;;;;;;;17.86;78.98;96511.13;104895;1270;108669;-83
2023/08/03 17:30:33;;;;;;;5.90;2.90;;;;;;;17.82;78.83;96508.46;104804;1257;102273;-82
2023/08/03 17:33:00;;;;;;;7.80;3.40;;;;;;;17.80;78.94;96501.42;104969;1278;100710;-82
2023/08/03 17:35:31;;;;;;;8.80;3.80;;;;;;;17.83;79.28;96498.69;104894;1258;96812;-82
2023/08/03 17:37:59;;;;;;;6.20;3.40;;;;;;;17.87;79.28;96503.30;105102;1260;97149;-82
2023/08/03 17:40:26;;;;;;;6.50;3.30;;;;;;;17.89;79.56;96504.06;104935;1259;103067;-81
2023/08/03 17:42:54;;;;;;;3.60;2.70;;;;;;;17.88;78.91;96505.36;104821;1260;109424;-82
2023/08/03 17:45:22;;;;;;;3.30;2.50;;;;;;;17.90;78.12;96497.55;104914;1260;100563;-82
2023/08/03 17:47:50;;;;;;;5.90;2.90;;;;;;;17.96;77.96;96497.65;105167;1256;96584;-82
2023/08/03 17:50:17;;;;;;;5.20;3.00;;;;;;;17.98;78.54;96501.19;105153;1259;97029;-81
2023/08/03 17:52:48;;;;;;;5.80;3.10;;;;;;;17.94;78.90;96504.05;104920;1270;102947;-81
2023/08/03 17:55:16;;;;;;;4.90;3.00;;;;;;;17.94;78.86;96503.66;104846;1279;100609;-81
2023/08/03 17:57:44;;;;;;;6.60;3.10;;;;;;;17.92;79.01;96495.31;104863;1259;108040;-82
2023/08/03 18:00:14;;;;;;;5.40;2.70;;;;;;;17.90;79.13;96488.98;104875;1259;96662;-82
2023/08/03 18:02:44;;;;;;;5.60;3.20;;;;;;;17.88;79.48;96491.45;105000;1270;97163;-81
2023/08/03 18:05:13;;;;;;;5.80;3.60;;;;;;;17.83;79.47;96494.15;104983;1259;102989;-81
2023/08/03 18:07:41;;;;;;;7.90;3.60;;;;;;;17.83;79.58;96483.84;104750;1262;102124;-82
2023/08/03 18:10:09;;;;;;;9.00;3.50;;;;;;;17.80;79.68;96476.86;104955;1259;100640;-83
2023/08/03 18:12:37;;;;;;;4.90;3.00;;;;;;;17.73;79.57;96477.59;104922;1271;96642;-82
2023/08/03 18:15:06;;;;;;;22.20;5.10;;;;;;;17.62;79.54;96479.15;105010;1259;98168;-82
2023/08/03 18:17:33;;;;;;;24.70;7.90;;;;;;;17.54;79.65;96477.14;104900;1272;103171;-83
2023/08/03 18:20:01;;;;;;;21.90;11.50;;;;;;;17.46;79.63;96477.00;104880;1256;100024;-82
2023/08/03 18:22:29;;;;;;;22.10;11.00;;;;;;;17.39;79.70;96473.75;104871;1259;107947;-83
2023/08/03 18:24:57;;;;;;;15.50;8.70;;;;;;;17.37;79.86;96477.41;104807;1262;96703;-82